sensor_id;sensor_type;location;lat;lon;timestamp;temperature;humidity
4453;DHT22;2239;48.152;11.584;2022-07-21T00:00:51;23.10;99.90
4453;DHT22;2239;48.152;11.584;2022-07-21T00:03:17;23.00;99.90
4453;DHT22;2239;48.152;11.584;2022-07-21T00:05:42;23.00;99.90
4453;DHT22;2239;48.152;11.584;2022-07-21T00:08:08;22.90;99.90
4453;DHT22;2239;48.152;11.584;2022-07-21T00:10:33;22.80;99.90
4453;DHT22;2239;48.152;11.584;2022-07-21T00:12:59;22.70;99.90
4453;DHT22;2239;48.152;11.584;2022-07-21T00:15:26;22.60;99.90
4453;DHT22;2239;48.152;11.584;2022-07-21T00:17:53;22.60;99.90
4453;DHT22;2239;48.152;11.584;2022-07-21T00:20:19;22.70;99.90
4453;DHT22;2239;48.152;11.584;2022-07-21T00:22:45;22.60;99.90
4453;DHT22;2239;48.152;11.584;2022-07-21T00:25:12;22.60;99.90
4453;DHT22;2239;48.152;11.584;2022-07-21T00:27:38;22.40;99.90
4453;DHT22;2239;48.152;11.584;2022-07-21T00:30:05;22.30;99.90
4453;DHT22;2239;48.152;11.584;2022-07-21T00:32:32;22.30;99.90
4453;DHT22;2239;48.152;11.584;2022-07-21T00:34:58;22.10;99.90
4453;DHT22;2239;48.152;11.584;2022-07-21T00:37:23;22.20;99.90
4453;DHT22;2239;48.152;11.584;2022-07-21T00:39:50;22.20;99.90
4453;DHT22;2239;48.152;11.584;2022-07-21T00:42:28;22.30;99.90
4453;DHT22;2239;48.152;11.584;2022-07-21T00:44:54;22.40;99.90
4453;DHT22;2239;48.152;11.584;2022-07-21T00:47:27;22.40;99.90
4453;DHT22;2239;48.152;11.584;2022-07-21T00:49:54;22.40;99.90
4453;DHT22;2239;48.152;11.584;2022-07-21T00:52:20;22.50;99.90
4453;DHT22;2239;48.152;11.584;2022-07-21T00:54:46;22.60;99.90
4453;DHT22;2239;48.152;11.584;2022-07-21T00:57:12;22.60;99.90
4453;DHT22;2239;48.152;11.584;2022-07-21T00:59:39;22.70;99.90
4453;DHT22;2239;48.152;11.584;2022-07-21T01:02:05;22.60;99.90
4453;DHT22;2239;48.152;11.584;2022-07-21T01:04:30;22.70;99.90
4453;DHT22;2239;48.152;11.584;2022-07-21T01:06:57;22.70;99.90
4453;DHT22;2239;48.152;11.584;2022-07-21T01:09:23;22.80;99.90
4453;DHT22;2239;48.152;11.584;2022-07-21T01:11:48;22.90;99.90
4453;DHT22;2239;48.152;11.584;2022-07-21T01:14:15;22.80;99.90
4453;DHT22;2239;48.152;11.584;2022-07-21T01:16:41;22.90;99.90
4453;DHT22;2239;48.152;11.584;2022-07-21T01:19:08;23.00;99.90
4453;DHT22;2239;48.152;11.584;2022-07-21T01:21:36;22.90;99.90
4453;DHT22;2239;48.152;11.584;2022-07-21T01:24:03;22.90;99.90
4453;DHT22;2239;48.152;11.584;2022-07-21T01:26:29;22.80;99.90
4453;DHT22;2239;48.152;11.584;2022-07-21T01:28:56;22.70;99.90
4453;DHT22;2239;48.152;11.584;2022-07-21T01:31:22;22.70;99.90
4453;DHT22;2239;48.152;11.584;2022-07-21T01:33:48;22.60;99.90
4453;DHT22;2239;48.152;11.584;2022-07-21T01:36:13;22.50;99.90
4453;DHT22;2239;48.152;11.584;2022-07-21T01:38:39;22.50;99.90
4453;DHT22;2239;48.152;11.584;2022-07-21T01:41:23;22.40;99.90
4453;DHT22;2239;48.152;11.584;2022-07-21T01:43:57;22.40;99.90
4453;DHT22;2239;48.152;11.584;2022-07-21T01:46:23;22.40;99.90
4453;DHT22;2239;48.152;11.584;2022-07-21T01:48:48;22.30;99.90
4453;DHT22;2239;48.152;11.584;2022-07-21T01:51:14;22.30;99.90
4453;DHT22;2239;48.152;11.584;2022-07-21T01:53:40;22.30;99.90
4453;DHT22;2239;48.152;11.584;2022-07-21T01:56:06;22.20;99.90
4453;DHT22;2239;48.152;11.584;2022-07-21T01:58:33;22.10;99.90
4453;DHT22;2239;48.152;11.584;2022-07-21T02:00:58;22.10;99.90
4453;DHT22;2239;48.152;11.584;2022-07-21T02:03:24;22.10;99.90
4453;DHT22;2239;48.152;11.584;2022-07-21T02:05:49;22.10;99.90
4453;DHT22;2239;48.152;11.584;2022-07-21T02:08:15;22.10;99.90
4453;DHT22;2239;48.152;11.584;2022-07-21T02:10:40;22.20;99.90
4453;DHT22;2239;48.152;11.584;2022-07-21T02:13:06;22.30;99.90
4453;DHT22;2239;48.152;11.584;2022-07-21T02:15:32;22.30;99.90
4453;DHT22;2239;48.152;11.584;2022-07-21T02:17:58;22.40;99.90
4453;DHT22;2239;48.152;11.584;2022-07-21T02:20:25;22.40;99.90
4453;DHT22;2239;48.152;11.584;2022-07-21T02:22:51;22.50;99.90
4453;DHT22;2239;48.152;11.584;2022-07-21T02:25:17;22.60;99.90
4453;DHT22;2239;48.152;11.584;2022-07-21T02:27:43;22.60;99.90
4453;DHT22;2239;48.152;11.584;2022-07-21T02:30:10;22.60;99.90
4453;DHT22;2239;48.152;11.584;2022-07-21T02:32:36;22.60;99.90
4453;DHT22;2239;48.152;11.584;2022-07-21T02:35:02;22.70;99.90
4453;DHT22;2239;48.152;11.584;2022-07-21T02:37:28;22.70;99.90
4453;DHT22;2239;48.152;11.584;2022-07-21T02:39:54;22.80;99.90
4453;DHT22;2239;48.152;11.584;2022-07-21T02:42:19;22.80;99.90
4453;DHT22;2239;48.152;11.584;2022-07-21T02:44:45;22.90;99.90
4453;DHT22;2239;48.152;11.584;2022-07-21T02:47:11;23.00;99.90
4453;DHT22;2239;48.152;11.584;2022-07-21T02:49:37;23.00;99.90
4453;DHT22;2239;48.152;11.584;2022-07-21T02:52:03;23.00;99.90
4453;DHT22;2239;48.152;11.584;2022-07-21T02:54:29;23.00;99.90
4453;DHT22;2239;48.152;11.584;2022-07-21T02:56:54;23.00;99.90
4453;DHT22;2239;48.152;11.584;2022-07-21T02:59:20;22.90;99.90
4453;DHT22;2239;48.152;11.584;2022-07-21T03:01:46;22.80;99.90
4453;DHT22;2239;48.152;11.584;2022-07-21T03:04:11;22.80;99.90
4453;DHT22;2239;48.152;11.584;2022-07-21T03:06:37;22.80;99.90
4453;DHT22;2239;48.152;11.584;2022-07-21T03:09:03;22.70;99.90
4453;DHT22;2239;48.152;11.584;2022-07-21T03:11:29;22.60;99.90
4453;DHT22;2239;48.152;11.584;2022-07-21T03:13:54;22.50;99.90
4453;DHT22;2239;48.152;11.584;2022-07-21T03:16:20;22.50;99.90
4453;DHT22;2239;48.152;11.584;2022-07-21T03:18:45;22.40;99.90
4453;DHT22;2239;48.152;11.584;2022-07-21T03:21:11;22.50;99.90
4453;DHT22;2239;48.152;11.584;2022-07-21T03:23:36;22.50;99.90
4453;DHT22;2239;48.152;11.584;2022-07-21T03:26:02;22.50;99.90
4453;DHT22;2239;48.152;11.584;2022-07-21T03:28:28;22.40;99.90
4453;DHT22;2239;48.152;11.584;2022-07-21T03:30:54;22.40;99.90
4453;DHT22;2239;48.152;11.584;2022-07-21T03:33:19;22.50;99.90
4453;DHT22;2239;48.152;11.584;2022-07-21T03:35:45;22.50;99.90
4453;DHT22;2239;48.152;11.584;2022-07-21T03:38:10;22.50;99.90
4453;DHT22;2239;48.152;11.584;2022-07-21T03:40:36;22.50;99.90
4453;DHT22;2239;48.152;11.584;2022-07-21T03:43:04;22.50;99.90
4453;DHT22;2239;48.152;11.584;2022-07-21T03:45:31;22.50;99.90
4453;DHT22;2239;48.152;11.584;2022-07-21T03:47:58;22.60;99.90
4453;DHT22;2239;48.152;11.584;2022-07-21T03:50:25;22.50;99.90
4453;DHT22;2239;48.152;11.584;2022-07-21T03:52:51;22.60;99.90
4453;DHT22;2239;48.152;11.584;2022-07-21T03:55:17;22.60;99.90
4453;DHT22;2239;48.152;11.584;2022-07-21T03:57:50;22.70;99.90
4453;DHT22;2239;48.152;11.584;2022-07-21T04:00:22;22.70;99.90
4453;DHT22;2239;48.152;11.584;2022-07-21T04:02:49;22.70;99.90
4453;DHT22;2239;48.152;11.584;2022-07-21T04:05:16;22.70;99.90
4453;DHT22;2239;48.152;11.584;2022-07-21T04:07:44;22.80;99.90
4453;DHT22;2239;48.152;11.584;2022-07-21T04:10:12;22.80;99.90
4453;DHT22;2239;48.152;11.584;2022-07-21T04:12:39;22.80;99.90
4453;DHT22;2239;48.152;11.584;2022-07-21T04:15:06;22.60;99.90
4453;DHT22;2239;48.152;11.584;2022-07-21T04:17:32;22.50;99.90
4453;DHT22;2239;48.152;11.584;2022-07-21T04:19:58;22.40;99.90
4453;DHT22;2239;48.152;11.584;2022-07-21T04:22:23;22.40;99.90
4453;DHT22;2239;48.152;11.584;2022-07-21T04:24:49;22.40;99.90
4453;DHT22;2239;48.152;11.584;2022-07-21T04:27:15;22.40;99.90
4453;DHT22;2239;48.152;11.584;2022-07-21T04:29:40;22.40;99.90
4453;DHT22;2239;48.152;11.584;2022-07-21T04:32:06;22.50;99.90
4453;DHT22;2239;48.152;11.584;2022-07-21T04:34:32;22.60;99.90
4453;DHT22;2239;48.152;11.584;2022-07-21T04:36:57;22.60;99.90
4453;DHT22;2239;48.152;11.584;2022-07-21T04:39:23;22.50;99.90
4453;DHT22;2239;48.152;11.584;2022-07-21T04:41:48;22.50;99.90
4453;DHT22;2239;48.152;11.584;2022-07-21T04:44:14;22.40;99.90
4453;DHT22;2239;48.152;11.584;2022-07-21T04:46:39;22.50;99.90
4453;DHT22;2239;48.152;11.584;2022-07-21T04:49:05;22.40;99.90
4453;DHT22;2239;48.152;11.584;2022-07-21T04:51:31;22.50;99.90
4453;DHT22;2239;48.152;11.584;2022-07-21T04:53:56;22.50;99.90
4453;DHT22;2239;48.152;11.584;2022-07-21T04:56:22;22.40;99.90
4453;DHT22;2239;48.152;11.584;2022-07-21T04:58:47;22.40;99.90
4453;DHT22;2239;48.152;11.584;2022-07-21T05:01:13;22.40;99.90
4453;DHT22;2239;48.152;11.584;2022-07-21T05:03:39;22.30;99.90
4453;DHT22;2239;48.152;11.584;2022-07-21T05:06:04;22.40;99.90
4453;DHT22;2239;48.152;11.584;2022-07-21T05:08:30;22.40;99.90
4453;DHT22;2239;48.152;11.584;2022-07-21T05:10:56;22.40;99.90
4453;DHT22;2239;48.152;11.584;2022-07-21T05:13:21;22.40;99.90
4453;DHT22;2239;48.152;11.584;2022-07-21T05:15:47;22.50;99.90
4453;DHT22;2239;48.152;11.584;2022-07-21T05:18:12;22.50;99.90
4453;DHT22;2239;48.152;11.584;2022-07-21T05:20:38;22.50;99.90
4453;DHT22;2239;48.152;11.584;2022-07-21T05:23:03;22.50;99.90
4453;DHT22;2239;48.152;11.584;2022-07-21T05:25:29;22.60;99.90
4453;DHT22;2239;48.152;11.584;2022-07-21T05:27:57;22.60;99.90
4453;DHT22;2239;48.152;11.584;2022-07-21T05:30:23;22.60;99.90
4453;DHT22;2239;48.152;11.584;2022-07-21T05:32:48;22.50;99.90
4453;DHT22;2239;48.152;11.584;2022-07-21T05:35:14;22.50;99.90
4453;DHT22;2239;48.152;11.584;2022-07-21T05:37:40;22.40;99.90
4453;DHT22;2239;48.152;11.584;2022-07-21T05:40:08;22.40;99.90
4453;DHT22;2239;48.152;11.584;2022-07-21T05:42:34;22.50;99.90
4453;DHT22;2239;48.152;11.584;2022-07-21T05:45:00;22.70;99.90
4453;DHT22;2239;48.152;11.584;2022-07-21T05:47:25;22.80;99.90
4453;DHT22;2239;48.152;11.584;2022-07-21T05:49:51;22.90;99.90
4453;DHT22;2239;48.152;11.584;2022-07-21T05:52:16;23.00;99.90
4453;DHT22;2239;48.152;11.584;2022-07-21T05:54:42;23.20;99.90
4453;DHT22;2239;48.152;11.584;2022-07-21T05:57:08;23.10;99.90
4453;DHT22;2239;48.152;11.584;2022-07-21T05:59:33;23.10;99.90
4453;DHT22;2239;48.152;11.584;2022-07-21T06:01:59;23.10;99.90
4453;DHT22;2239;48.152;11.584;2022-07-21T06:04:25;23.20;99.90
4453;DHT22;2239;48.152;11.584;2022-07-21T06:06:50;23.20;99.90
4453;DHT22;2239;48.152;11.584;2022-07-21T06:09:18;23.20;99.90
4453;DHT22;2239;48.152;11.584;2022-07-21T06:11:44;23.20;99.90
4453;DHT22;2239;48.152;11.584;2022-07-21T06:14:10;23.20;99.90
4453;DHT22;2239;48.152;11.584;2022-07-21T06:16:35;23.20;99.90
4453;DHT22;2239;48.152;11.584;2022-07-21T06:19:01;23.20;99.90
4453;DHT22;2239;48.152;11.584;2022-07-21T06:21:30;23.30;99.90
4453;DHT22;2239;48.152;11.584;2022-07-21T06:23:55;23.30;99.90
4453;DHT22;2239;48.152;11.584;2022-07-21T06:26:21;23.30;99.90
4453;DHT22;2239;48.152;11.584;2022-07-21T06:28:46;23.30;99.90
4453;DHT22;2239;48.152;11.584;2022-07-21T06:31:12;23.30;99.90
4453;DHT22;2239;48.152;11.584;2022-07-21T06:33:37;23.30;99.90
4453;DHT22;2239;48.152;11.584;2022-07-21T06:36:03;23.30;99.90
4453;DHT22;2239;48.152;11.584;2022-07-21T06:38:29;23.30;99.90
4453;DHT22;2239;48.152;11.584;2022-07-21T06:40:55;23.40;99.90
4453;DHT22;2239;48.152;11.584;2022-07-21T06:43:20;23.50;99.90
4453;DHT22;2239;48.152;11.584;2022-07-21T06:45:46;23.40;99.90
4453;DHT22;2239;48.152;11.584;2022-07-21T06:48:11;23.40;99.90
4453;DHT22;2239;48.152;11.584;2022-07-21T06:50:38;23.40;99.90
4453;DHT22;2239;48.152;11.584;2022-07-21T06:53:04;23.40;99.90
4453;DHT22;2239;48.152;11.584;2022-07-21T06:55:30;23.40;99.90
4453;DHT22;2239;48.152;11.584;2022-07-21T06:57:56;23.40;99.90
4453;DHT22;2239;48.152;11.584;2022-07-21T07:00:22;23.40;99.90
4453;DHT22;2239;48.152;11.584;2022-07-21T07:02:48;23.60;99.90
4453;DHT22;2239;48.152;11.584;2022-07-21T07:05:15;23.70;99.90
4453;DHT22;2239;48.152;11.584;2022-07-21T07:07:40;23.90;99.90
4453;DHT22;2239;48.152;11.584;2022-07-21T07:10:06;24.00;99.90
4453;DHT22;2239;48.152;11.584;2022-07-21T07:12:32;24.10;99.90
4453;DHT22;2239;48.152;11.584;2022-07-21T07:14:58;24.10;99.90
4453;DHT22;2239;48.152;11.584;2022-07-21T07:17:24;24.10;99.90
4453;DHT22;2239;48.152;11.584;2022-07-21T07:19:49;24.00;99.90
4453;DHT22;2239;48.152;11.584;2022-07-21T07:22:15;23.90;99.90
4453;DHT22;2239;48.152;11.584;2022-07-21T07:24:41;23.90;99.90
4453;DHT22;2239;48.152;11.584;2022-07-21T07:27:07;24.00;99.90
4453;DHT22;2239;48.152;11.584;2022-07-21T07:29:33;24.00;99.90
4453;DHT22;2239;48.152;11.584;2022-07-21T07:31:58;23.90;99.90
4453;DHT22;2239;48.152;11.584;2022-07-21T07:34:24;23.90;99.90
4453;DHT22;2239;48.152;11.584;2022-07-21T07:36:50;24.00;99.90
4453;DHT22;2239;48.152;11.584;2022-07-21T07:39:15;24.10;99.90
4453;DHT22;2239;48.152;11.584;2022-07-21T07:41:42;24.10;99.90
4453;DHT22;2239;48.152;11.584;2022-07-21T07:44:08;24.20;99.90
4453;DHT22;2239;48.152;11.584;2022-07-21T07:46:33;24.20;99.90
4453;DHT22;2239;48.152;11.584;2022-07-21T07:48:59;24.20;99.90
4453;DHT22;2239;48.152;11.584;2022-07-21T07:51:25;24.10;99.90
4453;DHT22;2239;48.152;11.584;2022-07-21T07:53:50;24.00;99.90
4453;DHT22;2239;48.152;11.584;2022-07-21T07:56:16;23.90;99.90
4453;DHT22;2239;48.152;11.584;2022-07-21T07:58:41;23.80;99.90
4453;DHT22;2239;48.152;11.584;2022-07-21T08:01:07;23.90;99.90
4453;DHT22;2239;48.152;11.584;2022-07-21T08:03:33;24.00;99.90
4453;DHT22;2239;48.152;11.584;2022-07-21T08:05:58;24.00;99.90
4453;DHT22;2239;48.152;11.584;2022-07-21T08:08:28;24.00;99.90
4453;DHT22;2239;48.152;11.584;2022-07-21T08:10:53;23.90;99.90
4453;DHT22;2239;48.152;11.584;2022-07-21T08:13:19;23.90;99.90
4453;DHT22;2239;48.152;11.584;2022-07-21T08:15:46;23.90;99.90
4453;DHT22;2239;48.152;11.584;2022-07-21T08:18:13;24.00;99.90
4453;DHT22;2239;48.152;11.584;2022-07-21T08:20:38;24.10;99.90
4453;DHT22;2239;48.152;11.584;2022-07-21T08:23:05;24.10;99.90
4453;DHT22;2239;48.152;11.584;2022-07-21T08:25:31;24.10;99.90
4453;DHT22;2239;48.152;11.584;2022-07-21T08:27:57;24.10;99.90
4453;DHT22;2239;48.152;11.584;2022-07-21T08:30:23;24.10;99.90
4453;DHT22;2239;48.152;11.584;2022-07-21T08:32:49;24.10;99.90
4453;DHT22;2239;48.152;11.584;2022-07-21T08:35:14;24.20;99.90
4453;DHT22;2239;48.152;11.584;2022-07-21T08:37:40;24.20;99.90
4453;DHT22;2239;48.152;11.584;2022-07-21T08:40:09;24.40;99.90
4453;DHT22;2239;48.152;11.584;2022-07-21T08:42:35;24.30;99.90
4453;DHT22;2239;48.152;11.584;2022-07-21T08:45:01;24.30;99.90
4453;DHT22;2239;48.152;11.584;2022-07-21T08:47:27;24.20;99.90
4453;DHT22;2239;48.152;11.584;2022-07-21T08:49:54;24.20;99.90
4453;DHT22;2239;48.152;11.584;2022-07-21T08:52:20;24.10;99.90
4453;DHT22;2239;48.152;11.584;2022-07-21T08:54:45;24.10;99.90
4453;DHT22;2239;48.152;11.584;2022-07-21T08:57:11;24.10;99.90
4453;DHT22;2239;48.152;11.584;2022-07-21T08:59:38;24.10;99.90
4453;DHT22;2239;48.152;11.584;2022-07-21T09:02:04;24.00;99.90
4453;DHT22;2239;48.152;11.584;2022-07-21T09:04:32;23.80;99.90
4453;DHT22;2239;48.152;11.584;2022-07-21T09:06:59;23.70;99.90
4453;DHT22;2239;48.152;11.584;2022-07-21T09:09:26;23.60;99.90
4453;DHT22;2239;48.152;11.584;2022-07-21T09:11:53;23.40;99.90
4453;DHT22;2239;48.152;11.584;2022-07-21T09:14:21;23.10;99.90
4453;DHT22;2239;48.152;11.584;2022-07-21T09:16:58;23.00;99.90
4453;DHT22;2239;48.152;11.584;2022-07-21T09:19:25;23.10;99.90
4453;DHT22;2239;48.152;11.584;2022-07-21T09:21:53;23.10;99.90
4453;DHT22;2239;48.152;11.584;2022-07-21T09:24:25;23.00;99.90
4453;DHT22;2239;48.152;11.584;2022-07-21T09:27:12;23.00;99.90
4453;DHT22;2239;48.152;11.584;2022-07-21T09:34:58;23.20;99.90
4453;DHT22;2239;48.152;11.584;2022-07-21T09:37:24;23.20;99.90
4453;DHT22;2239;48.152;11.584;2022-07-21T09:39:57;23.30;99.90
4453;DHT22;2239;48.152;11.584;2022-07-21T09:45:12;23.30;99.90
4453;DHT22;2239;48.152;11.584;2022-07-21T09:47:38;23.20;99.90
4453;DHT22;2239;48.152;11.584;2022-07-21T09:50:05;23.20;99.90
4453;DHT22;2239;48.152;11.584;2022-07-21T09:52:39;23.30;99.90
4453;DHT22;2239;48.152;11.584;2022-07-21T09:55:14;23.20;99.90
4453;DHT22;2239;48.152;11.584;2022-07-21T09:57:41;23.20;99.90
4453;DHT22;2239;48.152;11.584;2022-07-21T10:00:10;23.30;99.90
4453;DHT22;2239;48.152;11.584;2022-07-21T10:02:36;23.30;99.90
4453;DHT22;2239;48.152;11.584;2022-07-21T10:05:07;23.20;99.90
4453;DHT22;2239;48.152;11.584;2022-07-21T10:07:36;23.20;99.90
4453;DHT22;2239;48.152;11.584;2022-07-21T10:10:03;23.20;99.90
4453;DHT22;2239;48.152;11.584;2022-07-21T10:12:29;23.10;99.90
4453;DHT22;2239;48.152;11.584;2022-07-21T10:14:55;23.00;99.90
4453;DHT22;2239;48.152;11.584;2022-07-21T10:17:22;22.90;99.90
4453;DHT22;2239;48.152;11.584;2022-07-21T10:20:17;22.80;99.90
4453;DHT22;2239;48.152;11.584;2022-07-21T10:22:55;22.80;99.90
4453;DHT22;2239;48.152;11.584;2022-07-21T10:25:22;22.70;99.90
4453;DHT22;2239;48.152;11.584;2022-07-21T10:33:04;22.50;99.90
4453;DHT22;2239;48.152;11.584;2022-07-21T10:35:31;22.50;99.90
4453;DHT22;2239;48.152;11.584;2022-07-21T10:38:03;22.60;99.90
4453;DHT22;2239;48.152;11.584;2022-07-21T10:48:00;22.50;99.90
4453;DHT22;2239;48.152;11.584;2022-07-21T10:50:47;22.40;99.90
4453;DHT22;2239;48.152;11.584;2022-07-21T10:53:19;22.30;99.90
4453;DHT22;2239;48.152;11.584;2022-07-21T10:55:53;22.30;99.90
4453;DHT22;2239;48.152;11.584;2022-07-21T10:58:26;22.40;99.90
4453;DHT22;2239;48.152;11.584;2022-07-21T11:03:37;22.70;99.90
4453;DHT22;2239;48.152;11.584;2022-07-21T11:08:34;22.70;99.90
4453;DHT22;2239;48.152;11.584;2022-07-21T11:11:16;22.80;99.90
4453;DHT22;2239;48.152;11.584;2022-07-21T11:14:02;22.90;99.90
4453;DHT22;2239;48.152;11.584;2022-07-21T11:19:46;22.90;99.90
4453;DHT22;2239;48.152;11.584;2022-07-21T11:22:28;22.90;99.90
4453;DHT22;2239;48.152;11.584;2022-07-21T11:27:27;23.00;99.90
4453;DHT22;2239;48.152;11.584;2022-07-21T11:29:56;23.10;99.90
4453;DHT22;2239;48.152;11.584;2022-07-21T11:32:22;23.10;99.90
4453;DHT22;2239;48.152;11.584;2022-07-21T11:34:51;23.10;99.90
4453;DHT22;2239;48.152;11.584;2022-07-21T11:39:57;23.10;99.90
4453;DHT22;2239;48.152;11.584;2022-07-21T11:42:24;23.00;99.90
4453;DHT22;2239;48.152;11.584;2022-07-21T11:44:50;23.00;99.90
4453;DHT22;2239;48.152;11.584;2022-07-21T11:47:16;23.00;99.90
4453;DHT22;2239;48.152;11.584;2022-07-21T11:49:43;22.90;99.90
4453;DHT22;2239;48.152;11.584;2022-07-21T11:52:11;22.90;99.90
4453;DHT22;2239;48.152;11.584;2022-07-21T11:54:45;22.90;99.90
4453;DHT22;2239;48.152;11.584;2022-07-21T11:57:12;23.00;99.90
4453;DHT22;2239;48.152;11.584;2022-07-21T11:59:38;23.10;99.90
4453;DHT22;2239;48.152;11.584;2022-07-21T12:02:12;23.20;99.90
4453;DHT22;2239;48.152;11.584;2022-07-21T12:04:40;23.30;99.90
4453;DHT22;2239;48.152;11.584;2022-07-21T12:07:15;23.40;99.90
4453;DHT22;2239;48.152;11.584;2022-07-21T12:09:42;23.20;99.90
4453;DHT22;2239;48.152;11.584;2022-07-21T12:12:09;23.30;99.90
4453;DHT22;2239;48.152;11.584;2022-07-21T12:14:50;23.40;99.90
4453;DHT22;2239;48.152;11.584;2022-07-21T12:17:30;23.50;99.90
4453;DHT22;2239;48.152;11.584;2022-07-21T12:19:57;23.60;99.90
4453;DHT22;2239;48.152;11.584;2022-07-21T12:22:59;23.60;99.90
4453;DHT22;2239;48.152;11.584;2022-07-21T12:25:37;23.60;99.90
4453;DHT22;2239;48.152;11.584;2022-07-21T12:28:04;23.70;99.90
4453;DHT22;2239;48.152;11.584;2022-07-21T12:33:04;23.80;99.90
4453;DHT22;2239;48.152;11.584;2022-07-21T12:35:32;23.90;99.90
4453;DHT22;2239;48.152;11.584;2022-07-21T12:38:12;23.90;99.90
4453;DHT22;2239;48.152;11.584;2022-07-21T12:40:44;23.90;99.90
4453;DHT22;2239;48.152;11.584;2022-07-21T12:43:18;23.90;99.90
4453;DHT22;2239;48.152;11.584;2022-07-21T12:48:12;24.00;99.90
4453;DHT22;2239;48.152;11.584;2022-07-21T12:50:39;24.10;99.90
4453;DHT22;2239;48.152;11.584;2022-07-21T12:53:08;24.20;99.90
4453;DHT22;2239;48.152;11.584;2022-07-21T12:55:53;24.20;99.90
4453;DHT22;2239;48.152;11.584;2022-07-21T12:58:19;24.40;99.90
4453;DHT22;2239;48.152;11.584;2022-07-21T13:00:45;24.50;99.90
4453;DHT22;2239;48.152;11.584;2022-07-21T13:03:10;24.40;99.90
4453;DHT22;2239;48.152;11.584;2022-07-21T13:05:37;24.40;99.90
4453;DHT22;2239;48.152;11.584;2022-07-21T13:08:03;24.40;99.90
4453;DHT22;2239;48.152;11.584;2022-07-21T13:10:28;24.40;99.90
4453;DHT22;2239;48.152;11.584;2022-07-21T13:12:54;24.50;99.90
4453;DHT22;2239;48.152;11.584;2022-07-21T13:15:20;24.50;99.90
4453;DHT22;2239;48.152;11.584;2022-07-21T13:17:46;24.60;99.90
4453;DHT22;2239;48.152;11.584;2022-07-21T13:20:11;24.60;99.90
4453;DHT22;2239;48.152;11.584;2022-07-21T13:22:37;24.50;99.90
4453;DHT22;2239;48.152;11.584;2022-07-21T13:25:04;24.40;99.90
4453;DHT22;2239;48.152;11.584;2022-07-21T13:27:30;24.30;99.90
4453;DHT22;2239;48.152;11.584;2022-07-21T13:29:56;24.30;99.90
4453;DHT22;2239;48.152;11.584;2022-07-21T13:32:21;24.10;99.90
4453;DHT22;2239;48.152;11.584;2022-07-21T13:34:47;24.00;99.90
4453;DHT22;2239;48.152;11.584;2022-07-21T13:37:12;23.90;99.90
4453;DHT22;2239;48.152;11.584;2022-07-21T13:39:38;24.00;99.90
4453;DHT22;2239;48.152;11.584;2022-07-21T13:42:06;24.00;99.90
4453;DHT22;2239;48.152;11.584;2022-07-21T13:44:33;24.10;99.90
4453;DHT22;2239;48.152;11.584;2022-07-21T13:46:59;24.00;99.90
4453;DHT22;2239;48.152;11.584;2022-07-21T13:49:25;24.00;99.90
4453;DHT22;2239;48.152;11.584;2022-07-21T13:51:50;24.00;99.90
4453;DHT22;2239;48.152;11.584;2022-07-21T13:54:16;24.00;99.90
4453;DHT22;2239;48.152;11.584;2022-07-21T13:56:42;24.00;99.90
4453;DHT22;2239;48.152;11.584;2022-07-21T13:59:08;24.10;99.90
4453;DHT22;2239;48.152;11.584;2022-07-21T14:01:33;24.20;99.90
4453;DHT22;2239;48.152;11.584;2022-07-21T14:03:59;24.30;99.90
4453;DHT22;2239;48.152;11.584;2022-07-21T14:06:25;24.30;99.90
4453;DHT22;2239;48.152;11.584;2022-07-21T14:08:50;24.30;99.90
4453;DHT22;2239;48.152;11.584;2022-07-21T14:11:16;24.20;99.90
4453;DHT22;2239;48.152;11.584;2022-07-21T14:13:43;24.20;99.90
4453;DHT22;2239;48.152;11.584;2022-07-21T14:16:08;24.30;99.90
4453;DHT22;2239;48.152;11.584;2022-07-21T14:18:34;24.40;99.90
4453;DHT22;2239;48.152;11.584;2022-07-21T14:21:00;24.40;99.90
4453;DHT22;2239;48.152;11.584;2022-07-21T14:23:26;24.40;99.90
4453;DHT22;2239;48.152;11.584;2022-07-21T14:25:52;24.50;99.90
4453;DHT22;2239;48.152;11.584;2022-07-21T14:28:19;24.60;99.90
4453;DHT22;2239;48.152;11.584;2022-07-21T14:30:44;24.70;99.90
4453;DHT22;2239;48.152;11.584;2022-07-21T14:33:10;25.00;99.90
4453;DHT22;2239;48.152;11.584;2022-07-21T14:35:36;25.20;99.90
4453;DHT22;2239;48.152;11.584;2022-07-21T14:38:02;25.50;99.90
4453;DHT22;2239;48.152;11.584;2022-07-21T14:40:28;25.80;99.90
4453;DHT22;2239;48.152;11.584;2022-07-21T14:42:53;26.10;99.90
4453;DHT22;2239;48.152;11.584;2022-07-21T14:45:21;26.40;99.90
4453;DHT22;2239;48.152;11.584;2022-07-21T14:47:46;26.70;99.90
4453;DHT22;2239;48.152;11.584;2022-07-21T14:50:13;26.90;99.90
4453;DHT22;2239;48.152;11.584;2022-07-21T14:52:39;26.50;99.90
4453;DHT22;2239;48.152;11.584;2022-07-21T14:55:06;26.50;99.90
4453;DHT22;2239;48.152;11.584;2022-07-21T14:57:33;26.30;99.90
4453;DHT22;2239;48.152;11.584;2022-07-21T14:59:58;26.10;99.90
4453;DHT22;2239;48.152;11.584;2022-07-21T15:02:24;26.20;99.90
4453;DHT22;2239;48.152;11.584;2022-07-21T15:04:49;26.40;99.90
4453;DHT22;2239;48.152;11.584;2022-07-21T15:07:15;26.20;99.90
4453;DHT22;2239;48.152;11.584;2022-07-21T15:09:42;26.00;99.90
4453;DHT22;2239;48.152;11.584;2022-07-21T15:12:08;26.10;99.90
4453;DHT22;2239;48.152;11.584;2022-07-21T15:14:34;26.00;99.90
4453;DHT22;2239;48.152;11.584;2022-07-21T15:16:59;25.90;99.90
4453;DHT22;2239;48.152;11.584;2022-07-21T15:19:25;25.90;99.90
4453;DHT22;2239;48.152;11.584;2022-07-21T15:21:50;26.00;99.90
4453;DHT22;2239;48.152;11.584;2022-07-21T15:24:16;26.00;99.90
4453;DHT22;2239;48.152;11.584;2022-07-21T15:26:42;26.00;99.90
4453;DHT22;2239;48.152;11.584;2022-07-21T15:29:08;25.90;99.90
4453;DHT22;2239;48.152;11.584;2022-07-21T15:31:34;25.90;99.90
4453;DHT22;2239;48.152;11.584;2022-07-21T15:34:00;25.90;99.90
4453;DHT22;2239;48.152;11.584;2022-07-21T15:36:26;26.00;99.90
4453;DHT22;2239;48.152;11.584;2022-07-21T15:38:52;26.10;99.90
4453;DHT22;2239;48.152;11.584;2022-07-21T15:41:18;26.10;99.90
4453;DHT22;2239;48.152;11.584;2022-07-21T15:43:44;26.00;99.90
4453;DHT22;2239;48.152;11.584;2022-07-21T15:46:09;26.10;99.90
4453;DHT22;2239;48.152;11.584;2022-07-21T15:48:35;26.00;99.90
4453;DHT22;2239;48.152;11.584;2022-07-21T15:51:01;26.00;99.90
4453;DHT22;2239;48.152;11.584;2022-07-21T15:53:28;26.00;99.80
4453;DHT22;2239;48.152;11.584;2022-07-21T15:55:54;26.00;99.80
4453;DHT22;2239;48.152;11.584;2022-07-21T15:58:19;26.00;99.60
4453;DHT22;2239;48.152;11.584;2022-07-21T16:00:45;25.90;99.40
4453;DHT22;2239;48.152;11.584;2022-07-21T16:03:11;25.90;99.40
4453;DHT22;2239;48.152;11.584;2022-07-21T16:05:37;25.90;99.60
4453;DHT22;2239;48.152;11.584;2022-07-21T16:08:03;25.70;99.70
4453;DHT22;2239;48.152;11.584;2022-07-21T16:10:28;25.70;99.90
4453;DHT22;2239;48.152;11.584;2022-07-21T16:12:54;25.80;99.90
4453;DHT22;2239;48.152;11.584;2022-07-21T16:15:20;25.80;99.90
4453;DHT22;2239;48.152;11.584;2022-07-21T16:17:47;25.80;99.90
4453;DHT22;2239;48.152;11.584;2022-07-21T16:20:14;25.90;99.90
4453;DHT22;2239;48.152;11.584;2022-07-21T16:22:41;25.80;99.90